Aérodrome :
LOGIN :

S'inscrire | Disclaimer

   EN    FR    IT 

 










Légende :    VFR   VFR Marginal   IFR   IFR Intensif   IFR Très Intensif
Visi : 
Plafond : 
>= 8 km
>= 3000ft
5 à 8 km
1000 à 3000 ft
1500m à 5 km
500 à 1000 ft
800 à 1500m
200 à 500 ft
< 800m
< 200 ft
Symboles :   Orages  Brouillard  Fortes neiges  Fortes précipitations  Vent > 20 kt
SIGMETs :   Divers  Orages  Givrage  Turbulence  Onde Orograph.  Cendres Volcan.






- Altitude de l'aérodrome : 59 ft
- Code IATA : TSF


LIPH - Treviso

DERNIER METAR :
  • 010220Z AUTO 33003KT 9999 NCD 03/M06 Q1024

METARs EXPIRÉS :
  • 010150Z AUTO 35004KT 9999 FEW078/// 03/M06 Q1024
  • 010120Z AUTO 35004KT 9999 BKN079/// 03/M06 Q1024
  • 010050Z AUTO 35004KT 9999 BKN081/// 04/M06 Q1024
  • 010020Z AUTO 36003KT 330V030 9999 NCD 04/M06 Q1024
  • 312350Z AUTO 34004KT 9999 NCD 05/M07 Q1024

TAF TAF LIPH
Valide du 31 à 12h jusqu'au 01 à 12h UTC


311100Z 3112/0112 VRB06KT CAVOK



MET'MAP, la Météo Aéronautique d'un coup d'oeil ! - Copyright ORBIFLY Décembre 2007 - Disclaimer

ORBIFLY MET'MAP TEAM :

Programmation & Développement : Alexandra Zaïnal
Sur une idée originale de : Baudouin d'Aumeries
Assistance à la programmation : Marc-Olivier Méhu
Soutien technique & logistique : Manuel Goepfert

Contact : metmap@orbifly.com




SOURCES & CREDITS :

   NOAA